Time,TemperatureF,DewpointF,PressureIn,WindDirection,WindDirectionDegrees,WindSpeedMPH,WindSpeedGustMPH,Humidity,HourlyPrecipIn,Conditions,Clouds,dailyrainin,SoftwareType,DateUTC
2013-06-18 09:22:00,54.0,52.0,25.93,SSE,153,2.0,5.0,94,0.00,,,0.00,,2013-06-18 16:22:00,
2013-06-18 09:33:00,55.0,53.0,25.97,SE,127,4.0,14.0,92,0.00,,,0.00,,2013-06-18 16:33:00,
2013-06-18 09:43:00,56.0,52.0,25.95,SSE,148,4.0,14.0,88,0.00,,,0.00,,2013-06-18 16:43:00,
2013-06-18 09:52:00,56.0,52.0,25.95,SSE,148,4.0,14.0,88,0.00,,,0.00,,2013-06-18 16:52:00,
2013-06-18 10:01:00,56.0,52.0,25.93,ESE,115,4.0,14.0,87,0.00,,,0.00,,2013-06-18 17:01:00,
2013-06-18 10:11:00,56.0,52.0,25.93,ESE,115,4.0,14.0,87,0.00,,,0.00,,2013-06-18 17:11:00,
2013-06-18 10:22:00,58.0,54.0,25.82,South,172,3.0,11.0,86,0.00,,,0.00,,2013-06-18 17:22:00,
2013-06-18 10:33:00,58.0,54.0,25.82,South,172,3.0,11.0,86,0.00,,,0.00,,2013-06-18 17:33:00,
2013-06-18 10:43:00,57.0,53.0,25.84,South,171,4.0,14.0,86,0.00,,,0.00,,2013-06-18 17:43:00,
2013-06-18 10:53:00,57.0,52.0,25.85,South,175,3.0,17.0,84,0.00,,,0.00,,2013-06-18 17:53:00,
2013-06-18 11:01:00,58.0,53.0,25.86,SSE,153,3.0,14.0,83,0.00,,,0.00,,2013-06-18 18:01:00,
2013-06-18 11:11:00,58.0,53.0,25.86,SSE,153,3.0,14.0,83,0.00,,,0.00,,2013-06-18 18:11:00,
2013-06-18 11:22:00,57.0,53.0,25.84,South,176,5.0,15.0,86,0.00,,,0.00,,2013-06-18 18:22:00,
2013-06-18 11:33:00,57.0,53.0,25.84,South,176,5.0,15.0,86,0.00,,,0.00,,2013-06-18 18:33:00,
2013-06-18 11:42:00,56.0,52.0,25.85,South,173,5.0,13.0,87,0.00,,,0.00,,2013-06-18 18:42:00,
2013-06-18 11:53:00,56.0,52.0,25.86,SSE,154,3.0,9.0,87,0.00,,,0.00,,2013-06-18 18:53:00,
2013-06-18 12:01:00,56.0,52.0,25.86,SSE,154,3.0,9.0,87,0.00,,,0.00,,2013-06-18 19:01:00,
2013-06-18 12:11:00,56.0,52.0,25.86,SSE,154,3.0,9.0,87,0.00,,,0.00,,2013-06-18 19:11:00,
2013-06-18 12:22:00,56.0,53.0,25.85,South,179,3.0,10.0,90,0.00,,,-99.99,,2013-06-18 19:22:00,
2013-06-18 12:33:00,56.0,53.0,25.84,SE,138,4.0,13.0,90,0.00,,,0.00,,2013-06-18 19:33:00,
2013-06-18 12:43:00,57.0,53.0,25.85,SSE,150,7.0,14.0,87,0.00,,,0.00,,2013-06-18 19:43:00,
2013-06-18 12:52:00,57.0,53.0,25.85,SSE,150,7.0,14.0,87,0.00,,,0.00,,2013-06-18 19:52:00,
2013-06-18 13:01:00,57.0,53.0,25.85,South,183,3.0,14.0,87,0.00,,,0.00,,2013-06-18 20:01:00,
2013-06-18 13:11:00,59.0,53.0,25.85,South,189,9.0,24.0,81,0.00,,,0.00,,2013-06-18 20:11:00,
2013-06-18 13:22:00,60.0,54.0,25.85,SSE,166,9.0,19.0,80,0.00,,,0.00,,2013-06-18 20:22:00,
2013-06-18 13:33:00,59.0,53.0,25.85,South,170,8.0,21.0,80,0.00,,,0.00,,2013-06-18 20:33:00,
2013-06-18 13:43:00,59.0,54.0,25.86,SSW,192,8.0,20.0,82,0.00,,,0.00,,2013-06-18 20:43:00,
2013-06-18 13:52:00,59.0,54.0,25.86,SSW,192,8.0,20.0,82,0.00,,,0.00,,2013-06-18 20:52:00,
2013-06-18 14:01:00,59.0,54.0,25.86,SSW,192,8.0,20.0,82,0.00,,,0.00,,2013-06-18 21:01:00,
2013-06-18 14:11:00,59.0,53.0,25.86,SSE,164,9.0,25.0,81,0.00,,,0.00,,2013-06-18 21:11:00,
2013-06-18 14:22:00,59.0,53.0,25.86,SSE,164,9.0,25.0,81,0.00,,,0.00,,2013-06-18 21:22:00,
2013-06-18 14:33:00,59.0,53.0,25.85,South,174,10.0,20.0,80,0.00,,,0.00,,2013-06-18 21:33:00,
2013-06-18 14:43:00,59.0,53.0,25.86,SSE,158,10.0,25.0,81,0.00,,,0.00,,2013-06-18 21:43:00,
2013-06-18 14:52:00,59.0,54.0,25.84,SSW,198,5.0,21.0,83,0.00,,,0.00,,2013-06-18 21:52:00,
2013-06-18 15:01:00,59.0,54.0,25.84,SSW,198,5.0,21.0,83,0.00,,,0.00,,2013-06-18 22:01:00,
2013-06-18 15:11:00,59.0,54.0,25.84,SSW,198,5.0,21.0,83,0.00,,,0.00,,2013-06-18 22:11:00,
2013-06-18 15:22:00,59.0,54.0,25.84,SSW,204,10.0,23.0,84,0.00,,,0.00,,2013-06-18 22:22:00,
2013-06-18 15:34:00,59.0,54.0,25.84,SSW,204,10.0,23.0,84,0.00,,,0.00,,2013-06-18 22:34:00,
2013-06-18 15:43:00,60.0,54.0,25.85,South,180,7.0,20.0,82,0.00,,,0.00,,2013-06-18 22:43:00,
2013-06-18 15:53:00,60.0,54.0,25.85,South,180,7.0,20.0,82,0.00,,,0.00,,2013-06-18 22:53:00,
2013-06-18 16:01:00,60.0,54.0,25.85,South,174,6.0,17.0,82,0.00,,,0.00,,2013-06-18 23:01:00,
2013-06-18 16:11:00,60.0,54.0,25.85,SSE,162,8.0,16.0,82,0.00,,,0.00,,2013-06-18 23:11:00,
2013-06-18 16:23:00,60.0,54.0,25.85,SSE,162,8.0,16.0,82,0.00,,,0.00,,2013-06-18 23:23:00,
2013-06-18 16:34:00,60.0,54.0,25.85,SSE,162,8.0,16.0,82,0.00,,,0.00,,2013-06-18 23:34:00,
2013-06-18 16:44:00,59.0,54.0,25.86,South,178,10.0,19.0,82,0.00,,,0.00,,2013-06-18 23:44:00,
2013-06-18 16:53:00,59.0,54.0,25.86,South,178,10.0,19.0,82,0.00,,,0.00,,2013-06-18 23:53:00,
2013-06-18 17:01:00,59.0,54.0,25.86,South,178,10.0,19.0,82,0.00,,,0.00,,2013-06-19 00:01:00,
2013-06-18 17:11:00,59.0,54.0,25.86,South,170,10.0,19.0,82,0.00,,,0.00,,2013-06-19 00:11:00,
2013-06-18 17:22:00,59.0,54.0,25.86,South,170,10.0,19.0,82,0.00,,,0.00,,2013-06-19 00:22:00,
2013-06-18 17:33:00,59.0,54.0,25.86,South,170,10.0,19.0,82,0.00,,,0.00,,2013-06-19 00:33:00,
2013-06-18 17:43:00,59.0,54.0,25.86,South,174,6.0,15.0,85,0.00,,,0.00,,2013-06-19 00:43:00,
2013-06-18 17:53:00,59.0,54.0,25.86,South,174,6.0,15.0,85,0.00,,,0.00,,2013-06-19 00:53:00,
2013-06-18 18:01:00,58.0,54.0,25.85,South,173,4.0,17.0,85,0.00,,,0.00,,2013-06-19 01:01:00,
2013-06-18 18:11:00,58.0,54.0,25.85,SSE,162,5.0,12.0,85,0.00,,,0.00,,2013-06-19 01:11:00,
2013-06-18 18:22:00,58.0,54.0,25.85,SSE,162,5.0,12.0,85,0.00,,,0.00,,2013-06-19 01:22:00,
2013-06-18 18:32:00,57.0,53.0,25.84,SW,223,3.0,15.0,87,0.00,,,0.00,,2013-06-19 01:32:00,
2013-06-18 18:42:00,57.0,53.0,25.84,SW,223,3.0,15.0,87,0.00,,,0.00,,2013-06-19 01:42:00,
2013-06-18 18:53:00,56.0,53.0,25.84,South,170,5.0,13.0,90,0.00,,,0.00,,2013-06-19 01:53:00,
2013-06-18 19:01:00,56.0,53.0,25.84,South,170,5.0,13.0,90,0.00,,,0.00,,2013-06-19 02:01:00,
2013-06-18 19:11:00,56.0,53.0,25.84,South,170,5.0,13.0,90,0.00,,,0.00,,2013-06-19 02:11:00,
2013-06-18 19:21:00,56.0,53.0,25.84,South,170,5.0,13.0,90,0.00,,,0.00,,2013-06-19 02:21:00,
2013-06-18 19:32:00,56.0,53.0,25.84,South,170,5.0,13.0,90,0.00,,,0.00,,2013-06-19 02:32:00,
2013-06-18 20:22:00,54.0,53.0,25.84,SE,132,0.0,9.0,96,0.07,,,0.08,,2013-06-19 03:22:00,
2013-06-18 20:33:00,54.0,53.0,25.84,SE,132,0.0,9.0,96,0.07,,,0.08,,2013-06-19 03:33:00,
2013-06-18 20:43:00,54.0,53.0,25.84,SE,132,0.0,9.0,96,0.07,,,0.08,,2013-06-19 03:43:00,
2013-06-18 20:52:00,54.0,53.0,25.84,SE,132,0.0,9.0,96,0.07,,,0.08,,2013-06-19 03:52:00,
2013-06-18 21:01:00,54.0,53.0,25.84,SE,132,0.0,9.0,96,0.07,,,0.08,,2013-06-19 04:01:00,